Azamara Journey — 9HOB8 — position and weather

sailwx.info

Track history (hours):
 
Tides and Currents Weather Stations Pressure Air Temp Water Temp Dewpoint Dewpoint Depression Visibility Wind Speed Wind Dir Waves Ship Positions

Azamara Journey

Last reported at 2019-Aug-20 09:58 UTC. Time now 2019-Aug-20 10:29 UTC.
Position N 55°59' W 003°11'.

Type: Passenger vessel. MMSI: 256204000.

Date/timePositionNaut miles runAvg speedWind from/ knotsBaromVisibWave heightAir tempDewpointWater temp
2019-Aug-20 09:58N 55°59' W 003°11'0 0.0
2019-Aug-20 09:28N 55°59' W 003°11'0 0.0
2019-Aug-20 08:58N 55°59' W 003°11'0 0.0
2019-Aug-20 08:28N 55°59' W 003°11'0 0.0
2019-Aug-20 07:58N 55°59' W 003°11'0 0.0
2019-Aug-20 07:28N 55°59' W 003°11'612.0
2019-Aug-20 07:00N 55°54' W 003°06'6178.9 200 / 101014.3 14.014.015.0
2019-Aug-20 06:58N 55°59' W 003°11'0 0.0
2019-Aug-20 06:28N 55°59' W 003°11'0 0.0
2019-Aug-20 05:58N 55°59' W 003°11'0 0.0
2019-Aug-20 05:28N 55°59' W 003°11'0 0.0
2019-Aug-20 04:58N 55°59' W 003°11'0 0.0
2019-Aug-20 04:29N 55°59' W 003°11'0 0.6
2019-Aug-20 04:00N 55°59' W 003°11'0 0.5
2019-Aug-20 03:30N 55°59' W 003°11'1 2.4
2019-Aug-20 03:00N 56°00' W 003°11'3 6.2
2019-Aug-20 02:30N 56°01' W 003°05'4 9.0
2019-Aug-20 02:00N 56°04' W 002°59'4 8.4
2019-Aug-20 01:30N 56°05' W 002°52'510.9
2019-Aug-20 01:00N 56°06' W 002°42'611.5
2019-Aug-20 00:30N 56°06' W 002°32'611.4
2019-Aug-20 00:00N 56°06' W 002°22'611.4
2019-Aug-19 23:30N 56°05' W 002°12'611.4
2019-Aug-19 23:01N 56°03' W 002°02'611.1
2019-Aug-19 22:30N 55°59' W 001°54'611.6
2019-Aug-19 22:00N 55°56' W 001°46'2151.3
2019-Aug-19 22:00N 55°54' W 001°48'613.0 220 / 161007.810.8 16.016.014.0
2019-Aug-19 21:30N 55°51' W 001°38'713.2
2019-Aug-19 21:00N 55°46' W 001°30'713.1
2019-Aug-19 20:30N 55°41' W 001°22'612.7
2019-Aug-19 20:00N 55°35' W 001°21'612.5
2019-Aug-19 19:30N 55°29' W 001°19'712.9
2019-Aug-19 18:58N 55°22' W 001°19'613.6
2019-Aug-19 18:30N 55°16' W 001°18'713.3
2019-Aug-19 18:00N 55°09' W 001°18'713.3
2019-Aug-19 17:30N 55°02' W 001°20'5 9.1
2019-Aug-19 17:00N 54°60' W 001°27'0 0.6
2019-Aug-19 16:30N 54°60' W 001°27'0 0.0
2019-Aug-19 16:00N 54°60' W 001°27'0 0.0
2019-Aug-19 15:30N 54°60' W 001°27'0 0.0
2019-Aug-19 15:00N 54°60' W 001°27'0 0.0
2019-Aug-19 14:30N 54°60' W 001°27'0 0.0
2019-Aug-19 14:00N 54°60' W 001°27'0 0.0
2019-Aug-19 13:30N 54°60' W 001°27'0 0.0
2019-Aug-19 12:51N 54°60' W 001°27'0 0.0
2019-Aug-19 12:18N 54°60' W 001°27'0 0.0
2019-Aug-19 11:51N 54°60' W 001°27'0 0.0
2019-Aug-19 11:24N 54°60' W 001°27'0 0.0
2019-Aug-19 10:54N 54°60' W 001°27'0 0.0
2019-Aug-19 10:24N 54°60' W 001°27'0 0.0
2019-Aug-19 09:54N 54°60' W 001°27'0 0.0
2019-Aug-19 09:24N 54°60' W 001°27'98243.5
2019-Aug-19 09:00N 54°54' E 001°24'981019.8 240 / 221002.810.8 15.015.015.0
2019-Aug-19 08:54N 54°60' W 001°27'0 0.0
2019-Aug-19 08:27N 54°60' W 001°27'0 0.0
2019-Aug-19 07:57N 54°60' W 001°27'0 0.0
2019-Aug-19 07:24N 54°60' W 001°27'0 0.0
2019-Aug-19 07:00N 54°60' W 001°27'0 0.0
2019-Aug-19 06:27N 54°60' W 001°27'0 0.0
2019-Aug-19 06:00N 54°60' W 001°27'0 0.1
2019-Aug-19 05:31N 54°60' W 001°27'4 8.3
2019-Aug-19 05:00N 55°02' W 001°20'611.4
2019-Aug-19 04:30N 55°04' W 001°11'713.8
2019-Aug-19 04:00N 55°07' W 001°00'17357.4
2019-Aug-19 01:00N 52°18' E 000°00'21052.5 250 / 30999.810.8 15.0 6.913.0
2019-Aug-18 21:00N 55°42' E 001°24'7117.6 230 / 27997.810.8 17.017.017.0
2019-Aug-18 17:00N 56°12' E 003°18'6313.7 190 / 29997.6 17.017.017.0
2019-Aug-18 12:23N 56°39' E 005°01'716.7
2019-Aug-18 11:59N 56°42' E 005°12'916.6
2019-Aug-18 11:27N 56°45' E 005°27'816.3
2019-Aug-18 10:58N 56°48' E 005°40'816.3
2019-Aug-18 10:30N 56°51' E 005°53'816.3
2019-Aug-18 10:00N 56°54' E 006°06'816.1
2019-Aug-18 09:30N 56°58' E 006°20'816.1
2019-Aug-18 09:00N 57°01' E 006°34'5766.4
2019-Aug-18 09:00N 57°00' E 006°42'510.4 150 / 26997.810.8 18.018.017.0
2019-Aug-18 08:30N 57°04' E 006°47'816.2
2019-Aug-18 08:00N 57°08' E 007°01'1616.2
2019-Aug-18 07:00N 57°14' E 007°28'816.4
2019-Aug-18 06:30N 57°17' E 007°42'816.4
2019-Aug-18 06:00N 57°20' E 007°56'3887.3
2019-Aug-18 06:00N 57°18' E 007°54'1021.0 160 / 191000.6 15.015.017.0
2019-Aug-18 05:30N 57°24' E 008°10'816.3
2019-Aug-18 05:00N 57°27' E 008°23'816.2
2019-Aug-18 04:30N 57°30' E 008°38'816.0
2019-Aug-18 04:00N 57°33' E 008°51'815.9
2019-Aug-18 03:30N 57°37' E 009°05'816.0
2019-Aug-18 03:00N 57°40' E 009°18'815.8
2019-Aug-18 02:30N 57°44' E 009°31'3 5.5
2019-Aug-18 02:00N 57°42' E 009°36'7219.2 240 / 151000.810.8 18.012.716.0
2019-Aug-18 01:57N 57°46' E 009°47'715.9
2019-Aug-18 01:29N 57°48' E 010°01'1116.0
2019-Aug-18 00:48N 57°48' E 010°21'515.7
2019-Aug-18 00:30N 57°49' E 010°30'815.5
2019-Aug-18 00:00N 57°48' E 010°45'816.6
2019-Aug-17 23:30N 57°43' E 010°57'917.0
2019-Aug-17 23:00N 57°38' E 011°09'917.2
2019-Aug-17 22:30N 57°32' E 011°20'816.4
2019-Aug-17 22:00N 57°25' E 011°29'13809.5
2019-Aug-17 22:00N 57°12' E 011°30'511.3 230 / 221002.810.8 18.018.018.0
2019-Aug-17 21:30N 57°17' E 011°34'817.0
2019-Aug-17 21:00N 57°09' E 011°39'916.8
2019-Aug-17 20:29N 57°01' E 011°45'6017.2
2019-Aug-17 17:00N 56°06' E 012°30'221.8 180 / 221004.8 20.020.018.0
2019-Aug-17 16:54N 56°07' E 012°32'718.3
2019-Aug-17 16:30N 56°02' E 012°40'917.4
2019-Aug-17 16:00N 55°54' E 012°46'917.5
2019-Aug-17 15:30N 55°45' E 012°41'5 6.8
2019-Aug-17 14:48N 55°41' E 012°36'0 0.0
2019-Aug-17 14:24N 55°41' E 012°36'0 0.0
2019-Aug-17 14:00N 55°41' E 012°36'0 0.0
2019-Aug-17 13:30N 55°41' E 012°36'0 0.0
2019-Aug-17 12:57N 55°41' E 012°36'0 0.0
2019-Aug-17 12:30N 55°41' E 012°36'0 0.0
2019-Aug-17 11:57N 55°41' E 012°36'0 0.0
2019-Aug-17 11:27N 55°41' E 012°36'0 0.0
2019-Aug-17 11:00N 55°41' E 012°36'0 0.0
2019-Aug-17 10:27N 55°41' E 012°36'0 0.0
2019-Aug-17 10:00N 55°41' E 012°36'0 0.0
2019-Aug-17 09:24N 55°41' E 012°36'513.1
2019-Aug-17 09:00N 55°36' E 012°36'5152.6 170 / 111005.810.8 17.017.018.0
2019-Aug-17 08:57N 55°41' E 012°36'0 0.0
2019-Aug-17 08:30N 55°41' E 012°36'0 0.0
2019-Aug-17 08:00N 55°41' E 012°36'0 0.0
2019-Aug-17 07:30N 55°41' E 012°36'0 0.0
2019-Aug-17 06:57N 55°41' E 012°36'0 0.0
2019-Aug-17 06:30N 55°41' E 012°36'0 0.0
2019-Aug-17 06:00N 55°41' E 012°36'5383.3
2019-Aug-17 06:00N 55°36' E 012°36'511.2 180 / 101007.8 5.4 17.013.516.0
2019-Aug-17 05:30N 55°41' E 012°36'0 0.0
2019-Aug-17 04:48N 55°41' E 012°36'0 0.0
2019-Aug-17 04:30N 55°41' E 012°36'0 0.0
2019-Aug-17 03:57N 55°41' E 012°36'0 0.0
2019-Aug-17 03:30N 55°41' E 012°36'0 0.0
2019-Aug-17 03:00N 55°41' E 012°36'0 0.0
2019-Aug-17 02:27N 55°41' E 012°36'0 0.0
2019-Aug-17 01:57N 55°41' E 012°36'0 0.0
2019-Aug-17 01:30N 55°41' E 012°36'0 0.0
2019-Aug-17 00:57N 55°41' E 012°36'0 0.0
2019-Aug-17 00:30N 55°41' E 012°36'0 0.0
2019-Aug-17 00:00N 55°41' E 012°36'5383.3
2019-Aug-17 00:00N 55°36' E 012°36'510.1 180 / 81010.810.8 17.0 9.416.0
2019-Aug-16 23:27N 55°41' E 012°36'0 0.0
2019-Aug-16 23:00N 55°41' E 012°36'0 0.0
2019-Aug-16 22:30N 55°41' E 012°36'0 0.0
2019-Aug-16 21:57N 55°41' E 012°36'0 0.0
2019-Aug-16 21:30N 55°41' E 012°36'510.5
2019-Aug-16 21:00N 55°36' E 012°36'563.3 250 / 31010.810.8 18.018.018.0
2019-Aug-16 20:54N 55°41' E 012°36'0 0.0
2019-Aug-16 20:30N 55°41' E 012°36'0 0.0
2019-Aug-16 20:00N 55°41' E 012°36'0 0.0
2019-Aug-16 19:27N 55°41' E 012°36'0 0.0
2019-Aug-16 18:54N 55°41' E 012°36'0 0.0
2019-Aug-16 18:27N 55°41' E 012°36'0 0.0
2019-Aug-16 17:57N 55°41' E 012°36'0 0.0
2019-Aug-16 17:30N 55°41' E 012°36'0 0.0
2019-Aug-16 16:57N 55°41' E 012°36'0 0.0
2019-Aug-16 16:12N 55°41' E 012°36'0 0.0
2019-Aug-16 15:57N 55°41' E 012°36'0 0.0
2019-Aug-16 15:30N 55°41' E 012°36'0 0.0
2019-Aug-16 14:57N 55°41' E 012°36'0 0.0
2019-Aug-16 14:27N 55°41' E 012°36'0 0.0
2019-Aug-16 14:00N 55°41' E 012°36'0 0.0
2019-Aug-16 13:30N 55°41' E 012°36'0 0.0
2019-Aug-16 13:00N 55°41' E 012°36'5375.9
2019-Aug-16 13:00N 55°36' E 012°36'511.2 280 / 101010.827.0 22.020.519.0
2019-Aug-16 12:30N 55°41' E 012°36'0 0.0
2019-Aug-16 12:00N 55°41' E 012°36'0 0.0
2019-Aug-16 11:24N 55°41' E 012°36'0 0.0
2019-Aug-16 10:57N 55°41' E 012°36'1 1.7
2019-Aug-16 10:30N 55°42' E 012°36'3 5.6
2019-Aug-16 10:00N 55°43' E 012°41'612.8
2019-Aug-16 09:30N 55°37' E 012°42'611.7
2019-Aug-16 09:00N 55°31' E 012°42'815.7
2019-Aug-16 08:30N 55°23' E 012°41'713.1
2019-Aug-16 08:00N 55°17' E 012°47'915.5
2019-Aug-16 07:24N 55°15' E 013°03'2616.1
2019-Aug-16 05:46N 55°14' E 013°49'416.6
2019-Aug-16 05:30N 55°13' E 013°57'510.7
2019-Aug-16 05:00N 55°12' E 014°06'2618.2 260 / 231008.810.8 17.013.516.0
2019-Aug-16 03:36N 55°29' E 014°40'216.7
2019-Aug-16 03:29N 55°30' E 014°42'816.3
2019-Aug-16 03:00N 55°35' E 014°52'816.3
2019-Aug-16 02:31N 55°39' E 015°05'816.4
2019-Aug-16 02:00N 55°42' E 015°19'816.5
2019-Aug-16 01:30N 55°44' E 015°33'816.6
2019-Aug-16 01:00N 55°47' E 015°46'816.5
2019-Aug-16 00:31N 55°52' E 015°58'816.6
2019-Aug-16 00:01N 55°56' E 016°11'5314.0
2019-Aug-16 00:00N 56°00' E 016°18'3 6.3 180 / 421007.810.8 17.011.514.0
2019-Aug-15 23:30N 56°01' E 016°23'816.4
2019-Aug-15 23:01N 56°06' E 016°35'816.1
2019-Aug-15 22:30N 56°11' E 016°46'816.3
2019-Aug-15 22:00N 56°16' E 016°58'816.5
2019-Aug-15 21:31N 56°22' E 017°08'815.7
2019-Aug-15 21:00N 56°30' E 017°12'6315.8 130 / 231009.810.8 18.018.017.0
2019-Aug-15 17:00N 57°30' E 017°48'14 3.6 180 / 261010.810.8 18.012.718.0
2019-Aug-15 13:00N 57°36' E 018°12'27 5.4 190 / 201004.8 5.4 18.012.718.0
2019-Aug-15 08:00N 58°00' E 018°36'3612.1 260 / 161010.810.8 18.018.018.0
2019-Aug-15 05:00N 58°18' E 019°36'8215.5 270 / 211008.810.8 16.012.418.0
2019-Aug-14 23:43N 59°20' E 021°20'314.0
2019-Aug-14 23:30N 59°20' E 021°25'713.8
2019-Aug-14 23:01N 59°22' E 021°38'6354.2
2019-Aug-14 23:00N 59°18' E 021°30'1225.7 260 / 291004.810.8 16.0 8.114.0
2019-Aug-14 22:31N 59°24' E 021°52'713.9
2019-Aug-14 22:00N 59°26' E 022°05'713.6
2019-Aug-14 21:30N 59°28' E 022°17'713.5
2019-Aug-14 21:00N 59°30' E 022°30'0 3.5
2019-Aug-14 21:00N 59°30' E 022°30'714.0 230 / 261004.810.8 17.017.018.0
2019-Aug-14 20:30N 59°32' E 022°43'713.7
2019-Aug-14 20:01N 59°34' E 022°56'714.1
2019-Aug-14 19:31N 59°36' E 023°09'714.0
2019-Aug-14 19:01N 59°38' E 023°22'713.5
2019-Aug-14 18:30N 59°39' E 023°35'713.4
2019-Aug-14 18:00N 59°41' E 023°48'713.8
2019-Aug-14 17:29N 59°43' E 024°02'1122.9
2019-Aug-14 17:00N 59°42' E 024°24'539.9 230 / 251005.810.8 18.012.717.0
2019-Aug-14 16:52N 59°46' E 024°18'513.5
2019-Aug-14 16:31N 59°47' E 024°27'712.7
2019-Aug-14 15:59N 59°48' E 024°40'613.1
2019-Aug-14 15:31N 59°51' E 024°51'714.0
2019-Aug-14 15:01N 59°57' E 024°57'714.3
2019-Aug-14 14:31N 60°04' E 024°58'510.6
2019-Aug-14 14:00N 60°10' E 024°59'1 1.1
2019-Aug-14 13:29N 60°10' E 024°58'0 0.0
2019-Aug-14 12:59N 60°10' E 024°58'0 0.0
2019-Aug-14 12:29N 60°10' E 024°58'0 0.0
2019-Aug-14 11:59N 60°10' E 024°58'0 0.0
2019-Aug-14 11:29N 60°10' E 024°58'0 0.0
2019-Aug-14 10:59N 60°10' E 024°58'0 0.0
2019-Aug-14 10:29N 60°10' E 024°58'4 9.0
2019-Aug-14 10:00N 60°06' E 024°54'4279.1 230 / 161004.810.8 18.018.018.0
2019-Aug-14 09:59N 60°10' E 024°58'0 0.0
2019-Aug-14 09:29N 60°10' E 024°58'0 0.0
2019-Aug-14 08:59N 60°10' E 024°58'0 0.0
2019-Aug-14 08:29N 60°10' E 024°58'0 0.0
2019-Aug-14 07:59N 60°10' E 024°58'0 0.0
2019-Aug-14 07:29N 60°10' E 024°58'0 0.0
2019-Aug-14 06:56N 60°10' E 024°58'0 0.0
2019-Aug-14 06:29N 60°10' E 024°58'4 9.0
2019-Aug-14 06:00N 60°06' E 024°54'4274.2 190 / 131004.8 5.4 21.016.119.0
2019-Aug-14 05:59N 60°10' E 024°58'0 0.0
2019-Aug-14 05:29N 60°10' E 024°58'0 0.0
2019-Aug-14 04:59N 60°10' E 024°58'0 0.2
2019-Aug-14 04:30N 60°10' E 024°58'3 6.7
2019-Aug-14 04:00N 60°07' E 024°59'713.2
2019-Aug-14 03:30N 60°00' E 024°58'714.6
2019-Aug-14 03:00N 59°56' E 025°11'714.9
2019-Aug-14 02:30N 59°55' E 025°25'815.1
2019-Aug-14 01:59N 59°54' E 025°41'1616.8
2019-Aug-14 01:01N 59°59' E 026°12'010.0
2019-Aug-14 01:01N 59°59' E 026°12'816.7
2019-Aug-14 00:30N 60°00' E 026°28'816.5
2019-Aug-14 00:00N 60°01' E 026°45'5288.3
2019-Aug-14 00:00N 60°00' E 026°36'1326.3 210 / 261005.810.8 17.011.513.0
2019-Aug-13 23:30N 59°60' E 027°02'816.4
2019-Aug-13 23:00N 60°04' E 027°16'816.6
2019-Aug-13 22:30N 60°08' E 027°31'816.7
2019-Aug-13 22:00N 60°12' E 027°45'816.5
2019-Aug-13 21:30N 60°10' E 028°02'816.4
2019-Aug-13 21:00N 60°08' E 028°18'816.5
2019-Aug-13 20:31N 60°03' E 028°31'816.6
2019-Aug-13 20:00N 60°03' E 028°48'816.8
2019-Aug-13 19:30N 60°02' E 029°05'917.1
2019-Aug-13 19:00N 60°02' E 029°22'8680.8
2019-Aug-13 19:00N 60°00' E 029°06'1428.7 180 / 161006.810.8 18.018.019.0
2019-Aug-13 18:30N 60°01' E 029°34'612.1
2019-Aug-13 18:00N 59°59' E 029°45'510.7
2019-Aug-13 17:30N 59°56' E 029°55'510.9
2019-Aug-13 17:00N 59°54' E 030°05'6396.9
2019-Aug-13 17:00N 59°48' E 030°06'612.2 1006.8 5.4 21.016.119.0
2019-Aug-13 16:30N 59°53' E 030°12'3 5.5
2019-Aug-13 16:01N 59°55' E 030°16'1 2.4
2019-Aug-13 15:30N 59°56' E 030°17'0 0.0
2019-Aug-13 15:00N 59°56' E 030°17'0 0.0
2019-Aug-13 14:30N 59°56' E 030°17'0 0.0
2019-Aug-13 13:57N 59°56' E 030°17'0 0.0
2019-Aug-13 13:27N 59°56' E 030°17'0 0.0
2019-Aug-13 13:00N 59°56' E 030°17'0 0.0
2019-Aug-13 12:30N 59°56' E 030°17'0 0.0
2019-Aug-13 12:00N 59°56' E 030°17'0 0.0
2019-Aug-13 11:30N 59°56' E 030°17'0 0.0
2019-Aug-13 11:00N 59°56' E 030°17'0 0.0
2019-Aug-13 10:30N 59°56' E 030°17'0 0.0
2019-Aug-13 10:00N 59°56' E 030°17'3987.6
2019-Aug-13 10:00N 59°54' E 030°12'3 6.6 270 / 71007.827.0 21.017.817.0
2019-Aug-13 09:30N 59°56' E 030°17'0 0.0
2019-Aug-13 09:00N 59°56' E 030°17'0 0.0
2019-Aug-13 08:27N 59°56' E 030°17'0 0.0
2019-Aug-13 08:00N 59°56' E 030°17'31077.4
2019-Aug-13 08:00N 59°54' E 030°12'3 6.6 260 / 101007.810.8 18.018.016.0
2019-Aug-13 07:30N 59°56' E 030°17'0 0.0
2019-Aug-13 07:00N 59°56' E 030°17'0 0.0
2019-Aug-13 06:30N 59°56' E 030°17'0 0.0
2019-Aug-13 06:00N 59°56' E 030°17'0 0.0
2019-Aug-13 05:30N 59°56' E 030°17'0 0.0
2019-Aug-13 05:00N 59°56' E 030°17'0 0.0
2019-Aug-13 04:30N 59°56' E 030°17'0 0.0
2019-Aug-13 04:00N 59°56' E 030°17'0 0.0
2019-Aug-13 03:30N 59°56' E 030°17'0 0.0
2019-Aug-13 03:00N 59°56' E 030°17'31077.4
2019-Aug-13 03:00N 59°54' E 030°12'3 6.6 1007.8 5.4 17.013.516.0
2019-Aug-13 02:30N 59°56' E 030°17'0 0.0
2019-Aug-13 01:30N 59°56' E 030°17'0 0.0
2019-Aug-13 01:00N 59°56' E 030°17'0 0.0
2019-Aug-13 00:30N 59°56' E 030°17'0 0.0
2019-Aug-13 00:00N 59°56' E 030°17'0 0.0
2019-Aug-12 23:30N 59°56' E 030°17'0 0.0
2019-Aug-12 23:00N 59°56' E 030°17'0 0.0
2019-Aug-12 22:30N 59°56' E 030°17'0 0.0
2019-Aug-12 22:00N 59°56' E 030°17'3987.6
2019-Aug-12 22:00N 59°54' E 030°12'3 6.6 090 / 51009.810.8 17.011.515.0
2019-Aug-12 21:30N 59°56' E 030°17'0 0.0
2019-Aug-12 21:00N 59°56' E 030°17'0 0.0
2019-Aug-12 20:30N 59°56' E 030°17'0 0.0
2019-Aug-12 20:00N 59°56' E 030°17'31077.4
2019-Aug-12 20:00N 59°54' E 030°12'3 6.6 310 / 31010.810.8 21.021.018.0
2019-Aug-12 19:30N 59°56' E 030°17'0 0.0
2019-Aug-12 19:00N 59°56' E 030°17'0 0.0
2019-Aug-12 18:30N 59°56' E 030°17'0 0.0
2019-Aug-12 18:00N 59°56' E 030°17'0 0.0
2019-Aug-12 17:30N 59°56' E 030°17'0 0.0
2019-Aug-12 17:00N 59°56' E 030°17'31078.2
2019-Aug-12 17:00N 59°54' E 030°12'3 6.6 1011.8 5.4 21.016.119.0
2019-Aug-12 16:30N 59°56' E 030°17'0 0.0
2019-Aug-12 16:00N 59°56' E 030°17'0 0.0
2019-Aug-12 15:30N 59°56' E 030°17'0 0.0
2019-Aug-12 15:00N 59°56' E 030°17'0 0.0
2019-Aug-12 14:30N 59°56' E 030°17'0 0.0
2019-Aug-12 14:00N 59°56' E 030°17'0 0.0
2019-Aug-12 13:30N 59°56' E 030°17'0 0.0
2019-Aug-12 13:00N 59°56' E 030°17'0 0.0
2019-Aug-12 12:30N 59°56' E 030°17'0 0.0
2019-Aug-12 12:00N 59°56' E 030°17'3988.4
2019-Aug-12 12:00N 59°54' E 030°12'3 6.6 270 / 91011.827.0 21.019.416.0
2019-Aug-12 11:30N 59°56' E 030°17'0 0.0
2019-Aug-12 11:00N 59°56' E 030°17'0 0.0
2019-Aug-12 10:30N 59°56' E 030°17'0 0.0
2019-Aug-12 10:00N 59°56' E 030°17'0 0.0
2019-Aug-12 09:30N 59°56' E 030°17'0 0.0
2019-Aug-12 09:00N 59°56' E 030°17'0 0.0
2019-Aug-12 08:30N 59°56' E 030°17'3 6.5
2019-Aug-12 08:00N 59°54' E 030°12'334.1 260 / 81011.810.8 19.019.016.3
2019-Aug-12 07:54N 59°56' E 030°17'0 0.0
2019-Aug-12 07:30N 59°56' E 030°17'0 0.0
2019-Aug-12 07:00N 59°56' E 030°17'0 0.0
2019-Aug-12 06:30N 59°56' E 030°17'0 0.0
2019-Aug-12 06:00N 59°56' E 030°17'0 0.0
2019-Aug-12 05:30N 59°56' E 030°17'0 0.0
2019-Aug-12 05:00N 59°56' E 030°17'31078.2
2019-Aug-12 05:00N 59°54' E 030°12'3 6.8 190 / 41012.8 5.4 17.011.516.0
2019-Aug-12 04:30N 59°56' E 030°17'3 5.4
2019-Aug-12 04:01N 59°54' E 030°13'3 5.3
2019-Aug-12 03:31N 59°54' E 030°08'4 7.1
2019-Aug-12 03:01N 59°55' E 030°02'610.9
2019-Aug-12 02:30N 59°57' E 029°51'510.1
2019-Aug-12 02:01N 59°59' E 029°42'510.8
2019-Aug-12 01:30N 60°01' E 029°32'510.4
2019-Aug-12 01:00N 60°02' E 029°22'714.2
2019-Aug-12 00:30N 60°02' E 029°08'714.7
2019-Aug-12 00:01N 60°02' E 028°53'714.7
2019-Aug-11 23:30N 60°02' E 028°38'714.9
2019-Aug-11 23:01N 60°04' E 028°24'714.7
2019-Aug-11 22:30N 60°08' E 028°11'714.8
2019-Aug-11 22:01N 60°10' E 027°57'4221.0
2019-Aug-11 22:00N 60°06' E 027°54'714.3 190 / 151009.827.0 17.013.518.0
2019-Aug-11 21:31N 60°10' E 027°42'815.2
2019-Aug-11 21:00N 60°06' E 027°29'714.9
2019-Aug-11 20:31N 60°02' E 027°16'714.4
2019-Aug-11 20:01N 59°58' E 027°04'4256.2
2019-Aug-11 20:00N 59°54' E 027°06'1020.6 240 / 91008.810.8 17.017.018.0
2019-Aug-11 19:30N 59°59' E 026°49'815.4
2019-Aug-11 19:00N 59°59' E 026°33'815.8
2019-Aug-11 18:31N 59°56' E 026°18'1915.6
2019-Aug-11 17:16N 59°51' E 025°41'415.3
2019-Aug-11 17:00N 59°51' E 025°33'815.2
2019-Aug-11 16:29N 59°49' E 025°18'715.0
2019-Aug-11 16:00N 59°47' E 025°04'183.1
2019-Aug-11 16:00N 59°48' E 025°06'918.3 170 / 141007.8 2.2 19.013.816.0
2019-Aug-11 15:30N 59°43' E 024°51'815.0
2019-Aug-11 15:00N 59°37' E 024°41'714.3
2019-Aug-11 14:30N 59°31' E 024°45'4 7.2
2019-Aug-11 14:00N 59°27' E 024°46'0 0.0
2019-Aug-11 13:30N 59°27' E 024°46'0 0.0
2019-Aug-11 13:00N 59°27' E 024°46'0 0.0
2019-Aug-11 12:30N 59°27' E 024°46'0 0.0
2019-Aug-11 12:00N 59°27' E 024°46'0 0.0
2019-Aug-11 11:30N 59°27' E 024°46'0 0.0
2019-Aug-11 11:00N 59°27' E 024°46'0 0.0
2019-Aug-11 10:30N 59°27' E 024°46'0 0.0
2019-Aug-11 10:00N 59°27' E 024°46'4281.7
2019-Aug-11 10:00N 59°24' E 024°42'4 7.2 170 / 181006.810.8 17.013.515.0
2019-Aug-11 09:30N 59°27' E 024°46'0 0.0
2019-Aug-11 08:57N 59°27' E 024°46'0 0.0
2019-Aug-11 08:30N 59°27' E 024°46'0 0.0
2019-Aug-11 08:00N 59°27' E 024°46'4309.2
2019-Aug-11 08:00N 59°24' E 024°42'4 7.2 120 / 181006.8 5.4 17.017.016.0
2019-Aug-11 07:30N 59°27' E 024°46'0 0.0
2019-Aug-11 07:00N 59°27' E 024°46'0 0.2
2019-Aug-11 06:30N 59°27' E 024°46'4 8.7
2019-Aug-11 06:00N 59°30' E 024°40'713.4
2019-Aug-11 05:30N 59°30' E 024°27'612.4
2019-Aug-11 05:00N 59°29' E 024°15'612.7
2019-Aug-11 04:30N 59°28' E 024°03'2039.2
2019-Aug-11 04:00N 59°24' E 023°24'1176.7 170 / 231006.8 5.4 17.013.516.0
2019-Aug-11 03:51N 59°27' E 023°46'613.1
2019-Aug-11 03:22N 59°26' E 023°34'513.0
2019-Aug-11 03:00N 59°25' E 023°24'613.1
2019-Aug-11 02:30N 59°24' E 023°12'713.5
2019-Aug-11 02:00N 59°23' E 022°59'813.5
2019-Aug-11 01:26N 59°21' E 022°44'713.6
2019-Aug-11 00:57N 59°20' E 022°31'2324.5
2019-Aug-11 00:00N 59°12' E 021°48'6 9.1 180 / 281006.827.0 17.011.513.0
2019-Aug-10 23:23N 59°17' E 021°44'615.4
2019-Aug-10 23:00N 59°16' E 021°33'3617.7
2019-Aug-10 21:00N 59°12' E 020°24'3915.8 140 / 211004.810.8 18.018.019.0
2019-Aug-10 18:30N 59°14' E 019°07'612.5
2019-Aug-10 18:00N 59°16' E 018°56'611.5
2019-Aug-10 17:30N 59°20' E 018°47'611.4
2019-Aug-10 17:00N 59°22' E 018°38'51082.7
2019-Aug-10 17:00N 59°18' E 018°36'918.5 160 / 111007.8 5.4 18.012.716.0
2019-Aug-10 16:30N 59°26' E 018°29'3 5.5
2019-Aug-10 16:00N 59°24' E 018°27'3 6.5
2019-Aug-10 15:30N 59°22' E 018°21'611.4
2019-Aug-10 15:00N 59°20' E 018°11'2 3.3
2019-Aug-10 14:28N 59°21' E 018°07'0 0.0
2019-Aug-10 13:58N 59°21' E 018°07'0 0.0
2019-Aug-10 13:28N 59°21' E 018°07'0 0.0
2019-Aug-10 12:58N 59°21' E 018°07'0 0.0
2019-Aug-10 12:28N 59°21' E 018°07'0 0.0
2019-Aug-10 11:58N 59°21' E 018°07'0 0.0
2019-Aug-10 11:25N 59°21' E 018°07'0 0.0
2019-Aug-10 10:58N 59°21' E 018°07'0 0.0
2019-Aug-10 10:28N 59°21' E 018°07'3 5.6
2019-Aug-10 10:00N 59°18' E 018°06'   180 / 61004.810.8 20.020.016.0
Track history (hours):
 
Tides and Currents Weather Stations Pressure Air Temp Water Temp Dewpoint Dewpoint Depression Visibility Wind Speed Wind Dir Waves Ship Positions

Azamara Journey

Last reported at 2019-Aug-20 09:58 UTC. Time now 2019-Aug-20 10:29 UTC.
Position N 55°59' W 003°11'.

Type: Passenger vessel. MMSI: 256204000.

Date/timePositionNaut miles runAvg speedWind from/ knotsBaromVisibWave heightAir tempDewpointWater temp
2019-Aug-20 09:58N 55°59' W 003°11'0 0.0
2019-Aug-20 09:28N 55°59' W 003°11'0 0.0
2019-Aug-20 08:58N 55°59' W 003°11'0 0.0
2019-Aug-20 08:28N 55°59' W 003°11'0 0.0
2019-Aug-20 07:58N 55°59' W 003°11'0 0.0
2019-Aug-20 07:28N 55°59' W 003°11'612.0
2019-Aug-20 07:00N 55°54' W 003°06'6178.9 200 / 101014.3 14.014.015.0
2019-Aug-20 06:58N 55°59' W 003°11'0 0.0
2019-Aug-20 06:28N 55°59' W 003°11'0 0.0
2019-Aug-20 05:58N 55°59' W 003°11'0 0.0
2019-Aug-20 05:28N 55°59' W 003°11'0 0.0
2019-Aug-20 04:58N 55°59' W 003°11'0 0.0
2019-Aug-20 04:29N 55°59' W 003°11'0 0.6
2019-Aug-20 04:00N 55°59' W 003°11'0 0.5
2019-Aug-20 03:30N 55°59' W 003°11'1 2.4
2019-Aug-20 03:00N 56°00' W 003°11'3 6.2
2019-Aug-20 02:30N 56°01' W 003°05'4 9.0
2019-Aug-20 02:00N 56°04' W 002°59'4 8.4
2019-Aug-20 01:30N 56°05' W 002°52'510.9
2019-Aug-20 01:00N 56°06' W 002°42'611.5
2019-Aug-20 00:30N 56°06' W 002°32'611.4
2019-Aug-20 00:00N 56°06' W 002°22'611.4
2019-Aug-19 23:30N 56°05' W 002°12'611.4
2019-Aug-19 23:01N 56°03' W 002°02'611.1
2019-Aug-19 22:30N 55°59' W 001°54'611.6
2019-Aug-19 22:00N 55°56' W 001°46'2151.3
2019-Aug-19 22:00N 55°54' W 001°48'613.0 220 / 161007.810.8 16.016.014.0
2019-Aug-19 21:30N 55°51' W 001°38'713.2
2019-Aug-19 21:00N 55°46' W 001°30'713.1
2019-Aug-19 20:30N 55°41' W 001°22'612.7
2019-Aug-19 20:00N 55°35' W 001°21'612.5
2019-Aug-19 19:30N 55°29' W 001°19'712.9
2019-Aug-19 18:58N 55°22' W 001°19'613.6
2019-Aug-19 18:30N 55°16' W 001°18'713.3
2019-Aug-19 18:00N 55°09' W 001°18'713.3
2019-Aug-19 17:30N 55°02' W 001°20'5 9.1
2019-Aug-19 17:00N 54°60' W 001°27'0 0.6
2019-Aug-19 16:30N 54°60' W 001°27'0 0.0
2019-Aug-19 16:00N 54°60' W 001°27'0 0.0
2019-Aug-19 15:30N 54°60' W 001°27'0 0.0
2019-Aug-19 15:00N 54°60' W 001°27'0 0.0
2019-Aug-19 14:30N 54°60' W 001°27'0 0.0
2019-Aug-19 14:00N 54°60' W 001°27'0 0.0
2019-Aug-19 13:30N 54°60' W 001°27'0 0.0
2019-Aug-19 12:51N 54°60' W 001°27'0 0.0
2019-Aug-19 12:18N 54°60' W 001°27'0 0.0
2019-Aug-19 11:51N 54°60' W 001°27'0 0.0
2019-Aug-19 11:24N 54°60' W 001°27'0 0.0
2019-Aug-19 10:54N 54°60' W 001°27'0 0.0
2019-Aug-19 10:24N 54°60' W 001°27'0 0.0
2019-Aug-19 09:54N 54°60' W 001°27'0 0.0
2019-Aug-19 09:24N 54°60' W 001°27'98243.5
2019-Aug-19 09:00N 54°54' E 001°24'981019.8 240 / 221002.810.8 15.015.015.0
2019-Aug-19 08:54N 54°60' W 001°27'0 0.0
2019-Aug-19 08:27N 54°60' W 001°27'0 0.0
2019-Aug-19 07:57N 54°60' W 001°27'0 0.0
2019-Aug-19 07:24N 54°60' W 001°27'0 0.0
2019-Aug-19 07:00N 54°60' W 001°27'0 0.0
2019-Aug-19 06:27N 54°60' W 001°27'0 0.0
2019-Aug-19 06:00N 54°60' W 001°27'0 0.1
2019-Aug-19 05:31N 54°60' W 001°27'4 8.3
2019-Aug-19 05:00N 55°02' W 001°20'611.4
2019-Aug-19 04:30N 55°04' W 001°11'713.8
2019-Aug-19 04:00N 55°07' W 001°00'17357.4
2019-Aug-19 01:00N 52°18' E 000°00'21052.5 250 / 30999.810.8 15.0 6.913.0
2019-Aug-18 21:00N 55°42' E 001°24'7117.6 230 / 27997.810.8 17.017.017.0
2019-Aug-18 17:00N 56°12' E 003°18'6313.7 190 / 29997.6 17.017.017.0
2019-Aug-18 12:23N 56°39' E 005°01'716.7
2019-Aug-18 11:59N 56°42' E 005°12'916.6
2019-Aug-18 11:27N 56°45' E 005°27'816.3
2019-Aug-18 10:58N 56°48' E 005°40'816.3
2019-Aug-18 10:30N 56°51' E 005°53'816.3
2019-Aug-18 10:00N 56°54' E 006°06'816.1
2019-Aug-18 09:30N 56°58' E 006°20'816.1
2019-Aug-18 09:00N 57°01' E 006°34'5766.4
2019-Aug-18 09:00N 57°00' E 006°42'510.4 150 / 26997.810.8 18.018.017.0
2019-Aug-18 08:30N 57°04' E 006°47'816.2
2019-Aug-18 08:00N 57°08' E 007°01'1616.2
2019-Aug-18 07:00N 57°14' E 007°28'816.4
2019-Aug-18 06:30N 57°17' E 007°42'816.4
2019-Aug-18 06:00N 57°20' E 007°56'3887.3
2019-Aug-18 06:00N 57°18' E 007°54'1021.0 160 / 191000.6 15.015.017.0
2019-Aug-18 05:30N 57°24' E 008°10'816.3
2019-Aug-18 05:00N 57°27' E 008°23'816.2
2019-Aug-18 04:30N 57°30' E 008°38'816.0
2019-Aug-18 04:00N 57°33' E 008°51'815.9
2019-Aug-18 03:30N 57°37' E 009°05'816.0
2019-Aug-18 03:00N 57°40' E 009°18'815.8
2019-Aug-18 02:30N 57°44' E 009°31'3 5.5
2019-Aug-18 02:00N 57°42' E 009°36'7219.2 240 / 151000.810.8 18.012.716.0
2019-Aug-18 01:57N 57°46' E 009°47'715.9
2019-Aug-18 01:29N 57°48' E 010°01'1116.0
2019-Aug-18 00:48N 57°48' E 010°21'515.7
2019-Aug-18 00:30N 57°49' E 010°30'815.5
2019-Aug-18 00:00N 57°48' E 010°45'816.6
2019-Aug-17 23:30N 57°43' E 010°57'917.0
2019-Aug-17 23:00N 57°38' E 011°09'917.2
2019-Aug-17 22:30N 57°32' E 011°20'816.4
2019-Aug-17 22:00N 57°25' E 011°29'13809.5
2019-Aug-17 22:00N 57°12' E 011°30'511.3 230 / 221002.810.8 18.018.018.0
2019-Aug-17 21:30N 57°17' E 011°34'817.0
2019-Aug-17 21:00N 57°09' E 011°39'916.8
2019-Aug-17 20:29N 57°01' E 011°45'6017.2
2019-Aug-17 17:00N 56°06' E 012°30'221.8 180 / 221004.8 20.020.018.0
2019-Aug-17 16:54N 56°07' E 012°32'718.3
2019-Aug-17 16:30N 56°02' E 012°40'917.4
2019-Aug-17 16:00N 55°54' E 012°46'917.5
2019-Aug-17 15:30N 55°45' E 012°41'5 6.8
2019-Aug-17 14:48N 55°41' E 012°36'0 0.0
2019-Aug-17 14:24N 55°41' E 012°36'0 0.0
2019-Aug-17 14:00N 55°41' E 012°36'0 0.0
2019-Aug-17 13:30N 55°41' E 012°36'0 0.0
2019-Aug-17 12:57N 55°41' E 012°36'0 0.0
2019-Aug-17 12:30N 55°41' E 012°36'0 0.0
2019-Aug-17 11:57N 55°41' E 012°36'0 0.0
2019-Aug-17 11:27N 55°41' E 012°36'0 0.0
2019-Aug-17 11:00N 55°41' E 012°36'0 0.0
2019-Aug-17 10:27N 55°41' E 012°36'0 0.0
2019-Aug-17 10:00N 55°41' E 012°36'0 0.0
2019-Aug-17 09:24N 55°41' E 012°36'513.1
2019-Aug-17 09:00N 55°36' E 012°36'5152.6 170 / 111005.810.8 17.017.018.0
2019-Aug-17 08:57N 55°41' E 012°36'0 0.0
2019-Aug-17 08:30N 55°41' E 012°36'0 0.0
2019-Aug-17 08:00N 55°41' E 012°36'0 0.0
2019-Aug-17 07:30N 55°41' E 012°36'0 0.0
2019-Aug-17 06:57N 55°41' E 012°36'0 0.0
2019-Aug-17 06:30N 55°41' E 012°36'0 0.0
2019-Aug-17 06:00N 55°41' E 012°36'5383.3
2019-Aug-17 06:00N 55°36' E 012°36'511.2 180 / 101007.8 5.4 17.013.516.0
2019-Aug-17 05:30N 55°41' E 012°36'0 0.0
2019-Aug-17 04:48N 55°41' E 012°36'0 0.0
2019-Aug-17 04:30N 55°41' E 012°36'0 0.0
2019-Aug-17 03:57N 55°41' E 012°36'0 0.0
2019-Aug-17 03:30N 55°41' E 012°36'0 0.0
2019-Aug-17 03:00N 55°41' E 012°36'0 0.0
2019-Aug-17 02:27N 55°41' E 012°36'0 0.0
2019-Aug-17 01:57N 55°41' E 012°36'0 0.0
2019-Aug-17 01:30N 55°41' E 012°36'0 0.0
2019-Aug-17 00:57N 55°41' E 012°36'0 0.0
2019-Aug-17 00:30N 55°41' E 012°36'0 0.0
2019-Aug-17 00:00N 55°41' E 012°36'5383.3
2019-Aug-17 00:00N 55°36' E 012°36'510.1 180 / 81010.810.8 17.0 9.416.0
2019-Aug-16 23:27N 55°41' E 012°36'0 0.0
2019-Aug-16 23:00N 55°41' E 012°36'0 0.0
2019-Aug-16 22:30N 55°41' E 012°36'0 0.0
2019-Aug-16 21:57N 55°41' E 012°36'0 0.0
2019-Aug-16 21:30N 55°41' E 012°36'510.5
2019-Aug-16 21:00N 55°36' E 012°36'563.3 250 / 31010.810.8 18.018.018.0
2019-Aug-16 20:54N 55°41' E 012°36'0 0.0
2019-Aug-16 20:30N 55°41' E 012°36'0 0.0
2019-Aug-16 20:00N 55°41' E 012°36'0 0.0
2019-Aug-16 19:27N 55°41' E 012°36'0 0.0
2019-Aug-16 18:54N 55°41' E 012°36'0 0.0
2019-Aug-16 18:27N 55°41' E 012°36'0 0.0
2019-Aug-16 17:57N 55°41' E 012°36'0 0.0
2019-Aug-16 17:30N 55°41' E 012°36'0 0.0
2019-Aug-16 16:57N 55°41' E 012°36'0 0.0
2019-Aug-16 16:12N 55°41' E 012°36'0 0.0
2019-Aug-16 15:57N 55°41' E 012°36'0 0.0
2019-Aug-16 15:30N 55°41' E 012°36'0 0.0
2019-Aug-16 14:57N 55°41' E 012°36'0 0.0
2019-Aug-16 14:27N 55°41' E 012°36'0 0.0
2019-Aug-16 14:00N 55°41' E 012°36'0 0.0
2019-Aug-16 13:30N 55°41' E 012°36'0 0.0
2019-Aug-16 13:00N 55°41' E 012°36'5375.9
2019-Aug-16 13:00N 55°36' E 012°36'511.2 280 / 101010.827.0 22.020.519.0
2019-Aug-16 12:30N 55°41' E 012°36'0 0.0
2019-Aug-16 12:00N 55°41' E 012°36'0 0.0
2019-Aug-16 11:24N 55°41' E 012°36'0 0.0
2019-Aug-16 10:57N 55°41' E 012°36'1 1.7
2019-Aug-16 10:30N 55°42' E 012°36'3 5.6
2019-Aug-16 10:00N 55°43' E 012°41'612.8
2019-Aug-16 09:30N 55°37' E 012°42'611.7
2019-Aug-16 09:00N 55°31' E 012°42'815.7
2019-Aug-16 08:30N 55°23' E 012°41'713.1
2019-Aug-16 08:00N 55°17' E 012°47'915.5
2019-Aug-16 07:24N 55°15' E 013°03'2616.1
2019-Aug-16 05:46N 55°14' E 013°49'416.6
2019-Aug-16 05:30N 55°13' E 013°57'510.7
2019-Aug-16 05:00N 55°12' E 014°06'2618.2 260 / 231008.810.8 17.013.516.0
2019-Aug-16 03:36N 55°29' E 014°40'216.7
2019-Aug-16 03:29N 55°30' E 014°42'816.3
2019-Aug-16 03:00N 55°35' E 014°52'816.3
2019-Aug-16 02:31N 55°39' E 015°05'816.4
2019-Aug-16 02:00N 55°42' E 015°19'816.5
2019-Aug-16 01:30N 55°44' E 015°33'816.6
2019-Aug-16 01:00N 55°47' E 015°46'816.5
2019-Aug-16 00:31N 55°52' E 015°58'816.6
2019-Aug-16 00:01N 55°56' E 016°11'5314.0
2019-Aug-16 00:00N 56°00' E 016°18'3 6.3 180 / 421007.810.8 17.011.514.0
2019-Aug-15 23:30N 56°01' E 016°23'816.4
2019-Aug-15 23:01N 56°06' E 016°35'816.1
2019-Aug-15 22:30N 56°11' E 016°46'816.3
2019-Aug-15 22:00N 56°16' E 016°58'816.5
2019-Aug-15 21:31N 56°22' E 017°08'815.7
2019-Aug-15 21:00N 56°30' E 017°12'6315.8 130 / 231009.810.8 18.018.017.0
2019-Aug-15 17:00N 57°30' E 017°48'14 3.6 180 / 261010.810.8 18.012.718.0
2019-Aug-15 13:00N 57°36' E 018°12'27 5.4 190 / 201004.8 5.4 18.012.718.0
2019-Aug-15 08:00N 58°00' E 018°36'3612.1 260 / 161010.810.8 18.018.018.0
2019-Aug-15 05:00N 58°18' E 019°36'8215.5 270 / 211008.810.8 16.012.418.0
2019-Aug-14 23:43N 59°20' E 021°20'314.0
2019-Aug-14 23:30N 59°20' E 021°25'713.8
2019-Aug-14 23:01N 59°22' E 021°38'6354.2
2019-Aug-14 23:00N 59°18' E 021°30'1225.7 260 / 291004.810.8 16.0 8.114.0
2019-Aug-14 22:31N 59°24' E 021°52'713.9
2019-Aug-14 22:00N 59°26' E 022°05'713.6
2019-Aug-14 21:30N 59°28' E 022°17'713.5
2019-Aug-14 21:00N 59°30' E 022°30'0 3.5
2019-Aug-14 21:00N 59°30' E 022°30'714.0 230 / 261004.810.8 17.017.018.0
2019-Aug-14 20:30N 59°32' E 022°43'713.7
2019-Aug-14 20:01N 59°34' E 022°56'714.1
2019-Aug-14 19:31N 59°36' E 023°09'714.0
2019-Aug-14 19:01N 59°38' E 023°22'713.5
2019-Aug-14 18:30N 59°39' E 023°35'713.4
2019-Aug-14 18:00N 59°41' E 023°48'713.8
2019-Aug-14 17:29N 59°43' E 024°02'1122.9
2019-Aug-14 17:00N 59°42' E 024°24'539.9 230 / 251005.810.8 18.012.717.0
2019-Aug-14 16:52N 59°46' E 024°18'513.5
2019-Aug-14 16:31N 59°47' E 024°27'712.7
2019-Aug-14 15:59N 59°48' E 024°40'613.1
2019-Aug-14 15:31N 59°51' E 024°51'714.0
2019-Aug-14 15:01N 59°57' E 024°57'714.3
2019-Aug-14 14:31N 60°04' E 024°58'510.6
2019-Aug-14 14:00N 60°10' E 024°59'1 1.1
2019-Aug-14 13:29N 60°10' E 024°58'0 0.0
2019-Aug-14 12:59N 60°10' E 024°58'0 0.0
2019-Aug-14 12:29N 60°10' E 024°58'0 0.0
2019-Aug-14 11:59N 60°10' E 024°58'0 0.0
2019-Aug-14 11:29N 60°10' E 024°58'0 0.0
2019-Aug-14 10:59N 60°10' E 024°58'0 0.0
2019-Aug-14 10:29N 60°10' E 024°58'4 9.0
2019-Aug-14 10:00N 60°06' E 024°54'4279.1 230 / 161004.810.8 18.018.018.0
2019-Aug-14 09:59N 60°10' E 024°58'0 0.0
2019-Aug-14 09:29N 60°10' E 024°58'0 0.0
2019-Aug-14 08:59N 60°10' E 024°58'0 0.0
2019-Aug-14 08:29N 60°10' E 024°58'0 0.0
2019-Aug-14 07:59N 60°10' E 024°58'0 0.0
2019-Aug-14 07:29N 60°10' E 024°58'0 0.0
2019-Aug-14 06:56N 60°10' E 024°58'0 0.0
2019-Aug-14 06:29N 60°10' E 024°58'4 9.0
2019-Aug-14 06:00N 60°06' E 024°54'4274.2 190 / 131004.8 5.4 21.016.119.0
2019-Aug-14 05:59N 60°10' E 024°58'0 0.0
2019-Aug-14 05:29N 60°10' E 024°58'0 0.0
2019-Aug-14 04:59N 60°10' E 024°58'0 0.2
2019-Aug-14 04:30N 60°10' E 024°58'3 6.7
2019-Aug-14 04:00N 60°07' E 024°59'713.2
2019-Aug-14 03:30N 60°00' E 024°58'714.6
2019-Aug-14 03:00N 59°56' E 025°11'714.9
2019-Aug-14 02:30N 59°55' E 025°25'815.1
2019-Aug-14 01:59N 59°54' E 025°41'1616.8
2019-Aug-14 01:01N 59°59' E 026°12'010.0
2019-Aug-14 01:01N 59°59' E 026°12'816.7
2019-Aug-14 00:30N 60°00' E 026°28'816.5
2019-Aug-14 00:00N 60°01' E 026°45'5288.3
2019-Aug-14 00:00N 60°00' E 026°36'1326.3 210 / 261005.810.8 17.011.513.0
2019-Aug-13 23:30N 59°60' E 027°02'816.4
2019-Aug-13 23:00N 60°04' E 027°16'816.6
2019-Aug-13 22:30N 60°08' E 027°31'816.7
2019-Aug-13 22:00N 60°12' E 027°45'816.5
2019-Aug-13 21:30N 60°10' E 028°02'816.4
2019-Aug-13 21:00N 60°08' E 028°18'816.5
2019-Aug-13 20:31N 60°03' E 028°31'816.6
2019-Aug-13 20:00N 60°03' E 028°48'816.8
2019-Aug-13 19:30N 60°02' E 029°05'917.1
2019-Aug-13 19:00N 60°02' E 029°22'8680.8
2019-Aug-13 19:00N 60°00' E 029°06'1428.7 180 / 161006.810.8 18.018.019.0
2019-Aug-13 18:30N 60°01' E 029°34'612.1
2019-Aug-13 18:00N 59°59' E 029°45'510.7
2019-Aug-13 17:30N 59°56' E 029°55'510.9
2019-Aug-13 17:00N 59°54' E 030°05'6396.9
2019-Aug-13 17:00N 59°48' E 030°06'612.2 1006.8 5.4 21.016.119.0
2019-Aug-13 16:30N 59°53' E 030°12'3 5.5
2019-Aug-13 16:01N 59°55' E 030°16'1 2.4
2019-Aug-13 15:30N 59°56' E 030°17'0 0.0
2019-Aug-13 15:00N 59°56' E 030°17'0 0.0
2019-Aug-13 14:30N 59°56' E 030°17'0 0.0
2019-Aug-13 13:57N 59°56' E 030°17'0 0.0
2019-Aug-13 13:27N 59°56' E 030°17'0 0.0
2019-Aug-13 13:00N 59°56' E 030°17'0 0.0
2019-Aug-13 12:30N 59°56' E 030°17'0 0.0
2019-Aug-13 12:00N 59°56' E 030°17'0 0.0
2019-Aug-13 11:30N 59°56' E 030°17'0 0.0
2019-Aug-13 11:00N 59°56' E 030°17'0 0.0
2019-Aug-13 10:30N 59°56' E 030°17'0 0.0
2019-Aug-13 10:00N 59°56' E 030°17'3987.6
2019-Aug-13 10:00N 59°54' E 030°12'3 6.6 270 / 71007.827.0 21.017.817.0
2019-Aug-13 09:30N 59°56' E 030°17'0 0.0
2019-Aug-13 09:00N 59°56' E 030°17'0 0.0
2019-Aug-13 08:27N 59°56' E 030°17'0 0.0
2019-Aug-13 08:00N 59°56' E 030°17'31077.4
2019-Aug-13 08:00N 59°54' E 030°12'3 6.6 260 / 101007.810.8 18.018.016.0
2019-Aug-13 07:30N 59°56' E 030°17'0 0.0
2019-Aug-13 07:00N 59°56' E 030°17'0 0.0
2019-Aug-13 06:30N 59°56' E 030°17'0 0.0
2019-Aug-13 06:00N 59°56' E 030°17'0 0.0
2019-Aug-13 05:30N 59°56' E 030°17'0 0.0
2019-Aug-13 05:00N 59°56' E 030°17'0 0.0
2019-Aug-13 04:30N 59°56' E 030°17'0 0.0
2019-Aug-13 04:00N 59°56' E 030°17'0 0.0
2019-Aug-13 03:30N 59°56' E 030°17'0 0.0
2019-Aug-13 03:00N 59°56' E 030°17'31077.4
2019-Aug-13 03:00N 59°54' E 030°12'3 6.6 1007.8 5.4 17.013.516.0
2019-Aug-13 02:30N 59°56' E 030°17'0 0.0
2019-Aug-13 01:30N 59°56' E 030°17'0 0.0
2019-Aug-13 01:00N 59°56' E 030°17'0 0.0
2019-Aug-13 00:30N 59°56' E 030°17'0 0.0
2019-Aug-13 00:00N 59°56' E 030°17'0 0.0
2019-Aug-12 23:30N 59°56' E 030°17'0 0.0
2019-Aug-12 23:00N 59°56' E 030°17'0 0.0
2019-Aug-12 22:30N 59°56' E 030°17'0 0.0
2019-Aug-12 22:00N 59°56' E 030°17'3987.6
2019-Aug-12 22:00N 59°54' E 030°12'3 6.6 090 / 51009.810.8 17.011.515.0
2019-Aug-12 21:30N 59°56' E 030°17'0 0.0
2019-Aug-12 21:00N 59°56' E 030°17'0 0.0
2019-Aug-12 20:30N 59°56' E 030°17'0 0.0
2019-Aug-12 20:00N 59°56' E 030°17'31077.4
2019-Aug-12 20:00N 59°54' E 030°12'3 6.6 310 / 31010.810.8 21.021.018.0
2019-Aug-12 19:30N 59°56' E 030°17'0 0.0
2019-Aug-12 19:00N 59°56' E 030°17'0 0.0
2019-Aug-12 18:30N 59°56' E 030°17'0 0.0
2019-Aug-12 18:00N 59°56' E 030°17'0 0.0
2019-Aug-12 17:30N 59°56' E 030°17'0 0.0
2019-Aug-12 17:00N 59°56' E 030°17'31078.2
2019-Aug-12 17:00N 59°54' E 030°12'3 6.6 1011.8 5.4 21.016.119.0
2019-Aug-12 16:30N 59°56' E 030°17'0 0.0
2019-Aug-12 16:00N 59°56' E 030°17'0 0.0
2019-Aug-12 15:30N 59°56' E 030°17'0 0.0
2019-Aug-12 15:00N 59°56' E 030°17'0 0.0
2019-Aug-12 14:30N 59°56' E 030°17'0 0.0
2019-Aug-12 14:00N 59°56' E 030°17'0 0.0
2019-Aug-12 13:30N 59°56' E 030°17'0 0.0
2019-Aug-12 13:00N 59°56' E 030°17'0 0.0
2019-Aug-12 12:30N 59°56' E 030°17'0 0.0
2019-Aug-12 12:00N 59°56' E 030°17'3988.4
2019-Aug-12 12:00N 59°54' E 030°12'3 6.6 270 / 91011.827.0 21.019.416.0
2019-Aug-12 11:30N 59°56' E 030°17'0 0.0
2019-Aug-12 11:00N 59°56' E 030°17'0 0.0
2019-Aug-12 10:30N 59°56' E 030°17'0 0.0
2019-Aug-12 10:00N 59°56' E 030°17'0 0.0
2019-Aug-12 09:30N 59°56' E 030°17'0 0.0
2019-Aug-12 09:00N 59°56' E 030°17'0 0.0
2019-Aug-12 08:30N 59°56' E 030°17'3 6.5
2019-Aug-12 08:00N 59°54' E 030°12'334.1 260 / 81011.810.8 19.019.016.3
2019-Aug-12 07:54N 59°56' E 030°17'0 0.0
2019-Aug-12 07:30N 59°56' E 030°17'0 0.0
2019-Aug-12 07:00N 59°56' E 030°17'0 0.0
2019-Aug-12 06:30N 59°56' E 030°17'0 0.0
2019-Aug-12 06:00N 59°56' E 030°17'0 0.0
2019-Aug-12 05:30N 59°56' E 030°17'0 0.0
2019-Aug-12 05:00N 59°56' E 030°17'31078.2
2019-Aug-12 05:00N 59°54' E 030°12'3 6.8 190 / 41012.8 5.4 17.011.516.0
2019-Aug-12 04:30N 59°56' E 030°17'3 5.4
2019-Aug-12 04:01N 59°54' E 030°13'3 5.3
2019-Aug-12 03:31N 59°54' E 030°08'4 7.1
2019-Aug-12 03:01N 59°55' E 030°02'610.9
2019-Aug-12 02:30N 59°57' E 029°51'510.1
2019-Aug-12 02:01N 59°59' E 029°42'510.8
2019-Aug-12 01:30N 60°01' E 029°32'510.4
2019-Aug-12 01:00N 60°02' E 029°22'714.2
2019-Aug-12 00:30N 60°02' E 029°08'714.7
2019-Aug-12 00:01N 60°02' E 028°53'714.7
2019-Aug-11 23:30N 60°02' E 028°38'714.9
2019-Aug-11 23:01N 60°04' E 028°24'714.7
2019-Aug-11 22:30N 60°08' E 028°11'714.8
2019-Aug-11 22:01N 60°10' E 027°57'4221.0
2019-Aug-11 22:00N 60°06' E 027°54'714.3 190 / 151009.827.0 17.013.518.0
2019-Aug-11 21:31N 60°10' E 027°42'815.2
2019-Aug-11 21:00N 60°06' E 027°29'714.9
2019-Aug-11 20:31N 60°02' E 027°16'714.4
2019-Aug-11 20:01N 59°58' E 027°04'4256.2
2019-Aug-11 20:00N 59°54' E 027°06'1020.6 240 / 91008.810.8 17.017.018.0
2019-Aug-11 19:30N 59°59' E 026°49'815.4
2019-Aug-11 19:00N 59°59' E 026°33'815.8
2019-Aug-11 18:31N 59°56' E 026°18'1915.6
2019-Aug-11 17:16N 59°51' E 025°41'415.3
2019-Aug-11 17:00N 59°51' E 025°33'815.2
2019-Aug-11 16:29N 59°49' E 025°18'715.0
2019-Aug-11 16:00N 59°47' E 025°04'183.1
2019-Aug-11 16:00N 59°48' E 025°06'918.3 170 / 141007.8 2.2 19.013.816.0
2019-Aug-11 15:30N 59°43' E 024°51'815.0
2019-Aug-11 15:00N 59°37' E 024°41'714.3
2019-Aug-11 14:30N 59°31' E 024°45'4 7.2
2019-Aug-11 14:00N 59°27' E 024°46'0 0.0
2019-Aug-11 13:30N 59°27' E 024°46'0 0.0
2019-Aug-11 13:00N 59°27' E 024°46'0 0.0
2019-Aug-11 12:30N 59°27' E 024°46'0 0.0
2019-Aug-11 12:00N 59°27' E 024°46'0 0.0
2019-Aug-11 11:30N 59°27' E 024°46'0 0.0
2019-Aug-11 11:00N 59°27' E 024°46'0 0.0
2019-Aug-11 10:30N 59°27' E 024°46'0 0.0
2019-Aug-11 10:00N 59°27' E 024°46'4281.7
2019-Aug-11 10:00N 59°24' E 024°42'4 7.2 170 / 181006.810.8 17.013.515.0
2019-Aug-11 09:30N 59°27' E 024°46'0 0.0
2019-Aug-11 08:57N 59°27' E 024°46'0 0.0
2019-Aug-11 08:30N 59°27' E 024°46'0 0.0
2019-Aug-11 08:00N 59°27' E 024°46'4309.2
2019-Aug-11 08:00N 59°24' E 024°42'4 7.2 120 / 181006.8 5.4 17.017.016.0
2019-Aug-11 07:30N 59°27' E 024°46'0 0.0
2019-Aug-11 07:00N 59°27' E 024°46'0 0.2
2019-Aug-11 06:30N 59°27' E 024°46'4 8.7
2019-Aug-11 06:00N 59°30' E 024°40'713.4
2019-Aug-11 05:30N 59°30' E 024°27'612.4
2019-Aug-11 05:00N 59°29' E 024°15'612.7
2019-Aug-11 04:30N 59°28' E 024°03'2039.2
2019-Aug-11 04:00N 59°24' E 023°24'1176.7 170 / 231006.8 5.4 17.013.516.0
2019-Aug-11 03:51N 59°27' E 023°46'613.1
2019-Aug-11 03:22N 59°26' E 023°34'513.0
2019-Aug-11 03:00N 59°25' E 023°24'613.1
2019-Aug-11 02:30N 59°24' E 023°12'713.5
2019-Aug-11 02:00N 59°23' E 022°59'813.5
2019-Aug-11 01:26N 59°21' E 022°44'713.6
2019-Aug-11 00:57N 59°20' E 022°31'2324.5
2019-Aug-11 00:00N 59°12' E 021°48'6 9.1 180 / 281006.827.0 17.011.513.0
2019-Aug-10 23:23N 59°17' E 021°44'615.4
2019-Aug-10 23:00N 59°16' E 021°33'3617.7
2019-Aug-10 21:00N 59°12' E 020°24'3915.8 140 / 211004.810.8 18.018.019.0
2019-Aug-10 18:30N 59°14' E 019°07'612.5
2019-Aug-10 18:00N 59°16' E 018°56'611.5
2019-Aug-10 17:30N 59°20' E 018°47'611.4
2019-Aug-10 17:00N 59°22' E 018°38'51082.7
2019-Aug-10 17:00N 59°18' E 018°36'918.5 160 / 111007.8 5.4 18.012.716.0
2019-Aug-10 16:30N 59°26' E 018°29'3 5.5
2019-Aug-10 16:00N 59°24' E 018°27'3 6.5
2019-Aug-10 15:30N 59°22' E 018°21'611.4
2019-Aug-10 15:00N 59°20' E 018°11'2 3.3
2019-Aug-10 14:28N 59°21' E 018°07'0 0.0
2019-Aug-10 13:58N 59°21' E 018°07'0 0.0
2019-Aug-10 13:28N 59°21' E 018°07'0 0.0
2019-Aug-10 12:58N 59°21' E 018°07'0 0.0
2019-Aug-10 12:28N 59°21' E 018°07'0 0.0
2019-Aug-10 11:58N 59°21' E 018°07'0 0.0
2019-Aug-10 11:25N 59°21' E 018°07'0 0.0
2019-Aug-10 10:58N 59°21' E 018°07'0 0.0
2019-Aug-10 10:28N 59°21' E 018°07'3 5.6
2019-Aug-10 10:00N 59°18' E 018°06'   180 / 61004.810.8 20.020.016.0

Dump ship's entire track history